Time;durP1;ratioP1;P1;durP2;ratioP2;P2;SDS_P1;SDS_P2;PMS_P1;PMS_P2;Temp;Humidity;BMP_temperature;BMP_pressure;BME280_temperature;BME280_humidity;BME280_pressure;Samples;Min_cycle;Max_cycle;Signal;HPM_P1;HPM_P2
2022/06/18 00:01:37;;;;;;;2.40;1.63;;;15.70;99.90;;;;;;4985914;28;20042;-84
2022/06/18 00:04:15;;;;;;;4.20;2.03;;;15.70;99.90;;;;;;4984941;28;20035;-84
2022/06/18 00:06:59;;;;;;;2.30;1.75;;;15.60;99.90;;;;;;5003067;28;20033;-84
2022/06/18 00:09:54;;;;;;;3.97;1.60;;;15.60;99.90;;;;;;4970007;28;20026;-84
2022/06/18 00:15:18;;;;;;;1.90;1.60;;;15.60;99.90;;;;;;5006027;28;20058;-84
2022/06/18 00:17:45;;;;;;;2.65;1.73;;;15.60;99.90;;;;;;4973002;28;20030;-86
2022/06/18 00:20:13;;;;;;;3.13;2.00;;;15.50;99.90;;;;;;4975321;28;20081;-84
2022/06/18 00:22:43;;;;;;;1.63;1.52;;;15.50;99.90;;;;;;4987408;28;20538;-86
2022/06/18 00:25:28;;;;;;;3.35;2.03;;;15.50;99.90;;;;;;4974036;28;20034;-84
2022/06/18 00:28:02;;;;;;;2.97;1.65;;;15.40;99.90;;;;;;4986697;28;20060;-86
2022/06/18 00:30:30;;;;;;;2.95;1.92;;;15.40;99.90;;;;;;4970953;28;20035;-84
2022/06/18 00:32:56;;;;;;;2.22;1.70;;;15.40;99.90;;;;;;4984058;28;20081;-85
2022/06/18 00:35:22;;;;;;;2.42;1.80;;;15.40;99.90;;;;;;4990156;28;20137;-83
2022/06/18 00:37:56;;;;;;;3.75;2.35;;;15.40;99.90;;;;;;4969623;28;20039;-85
2022/06/18 00:40:49;;;;;;;4.63;2.10;;;15.40;99.90;;;;;;4974999;28;20033;-83
2022/06/18 00:43:27;;;;;;;5.18;1.83;;;15.40;99.90;;;;;;4993214;28;20027;-83
2022/06/18 00:45:59;;;;;;;3.15;2.10;;;15.30;99.90;;;;;;4967952;28;20031;-84
2022/06/18 00:48:38;;;;;;;3.35;2.10;;;15.30;99.90;;;;;;4974926;28;20035;-86
2022/06/18 00:51:19;;;;;;;2.13;1.73;;;15.20;99.90;;;;;;5005719;28;20030;-84
2022/06/18 00:53:51;;;;;;;2.10;1.75;;;15.20;99.90;;;;;;4974232;28;20026;-85
2022/06/18 00:56:33;;;;;;;4.50;2.00;;;15.20;99.90;;;;;;5010622;28;20379;-84
2022/06/18 00:59:12;;;;;;;2.10;1.90;;;15.20;99.90;;;;;;4988470;28;20514;-86
2022/06/18 01:01:41;;;;;;;4.47;2.10;;;15.30;99.90;;;;;;4994011;28;20026;-84
2022/06/18 01:04:28;;;;;;;2.85;2.08;;;15.30;99.90;;;;;;4986229;28;20018;-83
2022/06/18 01:07:17;;;;;;;6.70;2.33;;;15.20;99.90;;;;;;4987135;28;20026;-84
2022/06/18 01:09:49;;;;;;;3.28;2.08;;;15.20;99.90;;;;;;4994261;28;20034;-87
2022/06/18 01:12:15;;;;;;;2.90;2.20;;;15.20;99.90;;;;;;4989484;28;20022;-84
2022/06/18 01:14:42;;;;;;;4.05;1.58;;;15.20;99.90;;;;;;4983498;28;20018;-84
2022/06/18 01:17:11;;;;;;;2.33;2.13;;;15.20;99.90;;;;;;5010433;28;20014;-85
2022/06/18 01:19:45;;;;;;;2.08;1.73;;;15.30;99.90;;;;;;4974893;28;20056;-84
2022/06/18 01:22:18;;;;;;;;;;;15.30;99.90;;;;;;4979570;28;20475;-85
2022/06/18 01:24:44;;;;;;;2.95;2.03;;;15.30;99.90;;;;;;5011258;28;20330;-87
2022/06/18 01:27:19;;;;;;;3.00;2.17;;;15.20;99.90;;;;;;5001097;28;20300;-88
2022/06/18 01:29:48;;;;;;;3.45;2.17;;;15.20;99.90;;;;;;5011424;28;20030;-84
2022/06/18 01:32:15;;;;;;;6.93;2.20;;;15.10;99.90;;;;;;5011590;28;20033;-84
2022/06/18 01:34:44;;;;;;;2.30;1.90;;;15.10;99.90;;;;;;4977376;28;20022;-85
2022/06/18 01:37:11;;;;;;;2.30;1.85;;;15.10;99.90;;;;;;4975260;28;20023;-83
2022/06/18 01:39:42;;;;;;;2.67;1.92;;;15.10;99.90;;;;;;4989573;28;20038;-83
2022/06/18 01:42:26;;;;;;;3.13;2.00;;;15.10;99.90;;;;;;4987283;28;20399;-84
2022/06/18 01:45:04;;;;;;;3.55;1.92;;;15.10;99.90;;;;;;4989483;28;20169;-84
2022/06/18 01:47:59;;;;;;;2.88;2.35;;;15.10;99.90;;;;;;4976625;28;20600;-85
2022/06/18 01:50:38;;;;;;;4.43;2.42;;;15.10;99.90;;;;;;4986656;28;20034;-84
2022/06/18 01:53:26;;;;;;;1.90;1.80;;;15.10;99.90;;;;;;4982095;28;20164;-83
2022/06/18 01:56:06;;;;;;;2.33;2.10;;;15.20;99.90;;;;;;4978706;28;20068;-84
2022/06/18 01:59:08;;;;;;;3.25;2.10;;;15.10;99.90;;;;;;4994689;28;20030;-83
2022/06/18 02:01:45;;;;;;;3.05;2.25;;;15.10;99.90;;;;;;4973920;28;20117;-84
2022/06/18 02:04:13;;;;;;;3.33;2.28;;;15.10;99.90;;;;;;4991034;28;20395;-84
2022/06/18 02:06:40;;;;;;;3.13;2.53;;;15.20;99.90;;;;;;4985979;28;20058;-83
2022/06/18 02:09:29;;;;;;;2.80;2.50;;;15.30;99.90;;;;;;5006762;28;20026;-84
2022/06/18 02:11:56;;;;;;;2.47;2.03;;;15.40;99.90;;;;;;4976988;28;20038;-83
2022/06/18 02:14:23;;;;;;;3.78;2.83;;;15.50;99.90;;;;;;4997672;28;20026;-84
2022/06/18 02:16:52;;;;;;;4.15;2.47;;;15.50;99.90;;;;;;5092117;22;20129;-93
2022/06/18 02:19:18;;;;;;;3.28;2.80;;;15.50;99.90;;;;;;4996467;28;20029;-93
2022/06/18 02:21:49;;;;;;;4.80;3.28;;;15.50;99.90;;;;;;5015333;28;20041;-94
2022/06/18 02:24:16;;;;;;;4.80;2.40;;;15.50;99.90;;;;;;5010315;28;20038;-94
2022/06/18 02:26:45;;;;;;;5.40;2.50;;;15.50;99.90;;;;;;4992775;28;20065;-92
2022/06/18 02:29:31;;;;;;;2.97;2.70;;;15.50;99.90;;;;;;4995458;28;20031;-93
2022/06/18 02:32:01;;;;;;;5.65;2.63;;;15.30;99.90;;;;;;4997322;28;20066;-93
2022/06/18 02:34:30;;;;;;;3.65;2.70;;;15.30;99.90;;;;;;5016192;28;20409;-93
2022/06/18 02:36:58;;;;;;;6.85;2.78;;;15.20;99.90;;;;;;5006515;28;20026;-92
2022/06/18 02:39:32;;;;;;;5.78;2.83;;;15.20;99.90;;;;;;5016598;28;20029;-93
2022/06/18 02:42:12;;;;;;;3.72;2.83;;;15.20;99.90;;;;;;5008753;28;20098;-94
2022/06/18 02:44:42;;;;;;;4.18;2.72;;;15.10;99.90;;;;;;5032665;28;20054;-94
2022/06/18 02:47:09;;;;;;;3.72;2.85;;;15.10;99.90;;;;;;5017047;28;20018;-93
2022/06/18 02:49:40;;;;;;;4.88;2.78;;;15.10;99.90;;;;;;5028067;28;20023;-93
2022/06/18 02:52:07;;;;;;;4.85;3.10;;;15.10;99.90;;;;;;5009918;28;20034;-94
2022/06/18 02:54:33;;;;;;;3.08;2.70;;;15.20;99.90;;;;;;4982484;28;20031;-94
2022/06/18 02:57:06;;;;;;;3.95;2.35;;;15.20;99.90;;;;;;4979719;28;20493;-92
2022/06/18 02:59:34;;;;;;;5.65;2.90;;;15.30;99.90;;;;;;4979740;28;20093;-94
2022/06/18 03:02:00;;;;;;;3.83;2.65;;;15.30;99.90;;;;;;4980597;28;20511;-94
2022/06/18 03:04:26;;;;;;;4.50;3.08;;;15.20;99.90;;;;;;4980239;28;20035;-94
2022/06/18 03:06:53;;;;;;;5.80;3.10;;;14.90;99.90;;;;;;4980175;28;20379;-94
2022/06/18 03:09:19;;;;;;;3.75;2.80;;;14.80;99.90;;;;;;4980829;28;20042;-94
2022/06/18 03:14:40;;;;;;;3.35;2.67;;;14.80;99.90;;;;;;4981278;28;20094;-94
2022/06/18 03:17:06;;;;;;;4.95;2.75;;;14.80;99.90;;;;;;4981095;28;20026;-95
2022/06/18 03:19:49;;;;;;;3.10;2.80;;;14.70;99.90;;;;;;4976455;28;20085;-88
2022/06/18 03:22:19;;;;;;;4.50;3.47;;;14.70;99.90;;;;;;4974735;28;20414;-89
2022/06/18 03:24:45;;;;;;;3.72;2.92;;;14.60;99.90;;;;;;4974778;28;20030;-89
2022/06/18 03:27:13;;;;;;;5.10;2.70;;;14.60;99.90;;;;;;4974562;28;20471;-88
2022/06/18 03:29:43;;;;;;;4.32;3.08;;;14.60;99.90;;;;;;4974875;28;20027;-89
2022/06/18 03:32:10;;;;;;;4.00;2.70;;;14.60;99.90;;;;;;4974752;28;20035;-88
2022/06/18 03:34:36;;;;;;;4.28;2.60;;;14.60;99.90;;;;;;4974594;28;20490;-88
2022/06/18 03:37:02;;;;;;;3.50;2.85;;;14.70;99.90;;;;;;4974716;28;20027;-88
2022/06/18 03:39:28;;;;;;;3.03;2.65;;;14.70;99.90;;;;;;4974501;28;20066;-89
2022/06/18 03:41:55;;;;;;;3.08;2.20;;;14.70;99.90;;;;;;4974562;28;20031;-88
2022/06/18 03:44:22;;;;;;;3.00;2.42;;;14.80;99.90;;;;;;4974248;28;20102;-88
2022/06/18 03:46:48;;;;;;;3.17;2.58;;;14.80;99.90;;;;;;4974441;28;20034;-89
2022/06/18 03:49:29;;;;;;;5.78;2.60;;;14.90;99.90;;;;;;4974479;28;20121;-88
2022/06/18 03:51:58;;;;;;;3.63;2.53;;;15.00;99.90;;;;;;4974382;28;20486;-88
2022/06/18 03:54:24;;;;;;;5.88;3.08;;;14.90;99.90;;;;;;4974365;28;20027;-88
2022/06/18 03:56:51;;;;;;;2.97;2.30;;;15.00;99.90;;;;;;4974907;28;20121;-88
2022/06/18 03:59:17;;;;;;;3.45;2.53;;;15.10;99.90;;;;;;4971401;28;20035;-88
2022/06/18 04:01:44;;;;;;;3.88;2.55;;;15.20;99.90;;;;;;4974461;28;20039;-88
2022/06/18 04:04:13;;;;;;;2.92;2.47;;;15.30;99.90;;;;;;4973857;28;20030;-88
2022/06/18 04:06:43;;;;;;;;;;;15.40;99.90;;;;;;4970711;28;20037;-88
2022/06/18 04:09:27;;;;;;;4.22;2.75;;;15.50;99.90;;;;;;4988428;28;19937;-89
2022/06/18 04:11:53;;;;;;;4.35;2.50;;;15.60;99.90;;;;;;4973719;28;20034;-88
2022/06/18 04:14:19;;;;;;;3.13;2.70;;;15.70;99.90;;;;;;4973838;28;20042;-89
2022/06/18 04:17:01;;;;;;;;;;;15.70;99.90;;;;;;4974499;28;20050;-88
2022/06/18 04:19:28;;;;;;;3.90;2.92;;;15.80;99.90;;;;;;4974307;28;19910;-89
2022/06/18 04:21:55;;;;;;;3.13;2.40;;;15.90;99.90;;;;;;4974157;28;20442;-88
2022/06/18 04:24:25;;;;;;;2.75;2.42;;;16.00;99.90;;;;;;4974632;28;20058;-89
2022/06/18 04:26:52;;;;;;;3.28;2.40;;;16.10;99.90;;;;;;4974328;28;20031;-88
2022/06/18 04:29:18;;;;;;;4.43;2.50;;;16.20;99.90;;;;;;4974846;28;20058;-88
2022/06/18 04:31:44;;;;;;;4.25;2.60;;;16.20;99.90;;;;;;4977758;28;20048;-89
2022/06/18 04:34:10;;;;;;;5.28;2.50;;;16.30;99.90;;;;;;4977753;28;20026;-88
2022/06/18 04:36:54;;;;;;;3.10;2.58;;;16.40;99.90;;;;;;4979023;28;20058;-89
2022/06/18 04:39:35;;;;;;;4.25;2.88;;;16.50;99.90;;;;;;4977610;28;20698;-90
2022/06/18 04:42:30;;;;;;;5.60;2.85;;;16.50;99.90;;;;;;4977726;28;20031;-88
2022/06/18 04:44:56;;;;;;;5.40;2.85;;;16.70;99.90;;;;;;4977588;28;20038;-88
2022/06/18 04:47:32;;;;;;;4.97;2.72;;;16.80;99.90;;;;;;4977456;28;20027;-88
2022/06/18 04:50:00;;;;;;;8.82;2.53;;;16.90;99.90;;;;;;4977265;28;20038;-88
2022/06/18 04:52:26;;;;;;;2.88;2.58;;;17.10;99.90;;;;;;4977129;28;20031;-90
2022/06/18 04:55:00;;;;;;;3.97;2.53;;;17.20;99.90;;;;;;4974446;28;20046;-88
2022/06/18 04:57:28;;;;;;;5.32;2.70;;;17.30;99.90;;;;;;4976954;28;20046;-88
2022/06/18 04:59:54;;;;;;;5.68;2.97;;;17.50;99.90;;;;;;4977034;28;20038;-89
2022/06/18 05:02:26;;;;;;;4.93;2.65;;;17.60;99.90;;;;;;4977472;28;20038;-88
2022/06/18 05:04:55;;;;;;;3.05;2.40;;;17.80;99.90;;;;;;4993113;28;20035;-88
2022/06/18 05:07:33;;;;;;;3.30;2.80;;;17.90;99.90;;;;;;4974252;28;20034;-89
2022/06/18 05:10:24;;;;;;;2.95;2.08;;;18.10;99.90;;;;;;4980689;28;20394;-89
2022/06/18 05:13:03;;;;;;;3.63;2.67;;;18.30;99.90;;;;;;4977136;28;20487;-89
2022/06/18 05:15:52;;;;;;;4.13;2.45;;;18.40;99.90;;;;;;4976981;28;20027;-89
2022/06/18 05:18:18;;;;;;;4.15;2.60;;;18.50;99.90;;;;;;4976749;28;20062;-89
2022/06/18 05:20:53;;;;;;;4.75;2.38;;;18.70;99.90;;;;;;4976974;28;20046;-89
2022/06/18 05:23:22;;;;;;;4.25;2.42;;;18.80;99.90;;;;;;4976821;28;20054;-89
2022/06/18 05:25:54;;;;;;;5.63;2.33;;;19.00;99.90;;;;;;4976879;28;20422;-89
2022/06/18 05:28:20;;;;;;;4.57;2.75;;;19.10;99.90;;;;;;4976709;28;20073;-90
2022/06/18 05:30:46;;;;;;;6.38;2.83;;;19.30;99.90;;;;;;4976505;28;20483;-90
2022/06/18 05:33:12;;;;;;;4.85;3.15;;;19.50;99.90;;;;;;4976757;28;20026;-89
2022/06/18 05:35:45;;;;;;;4.68;2.78;;;19.60;99.90;;;;;;4976590;28;20118;-88
2022/06/18 05:38:20;;;;;;;4.18;2.70;;;19.80;99.90;;;;;;4976977;28;20037;-88
2022/06/18 05:40:47;;;;;;;5.00;2.63;;;20.00;99.90;;;;;;4975741;28;20055;-89
2022/06/18 05:43:14;;;;;;;3.47;2.33;;;20.20;99.90;;;;;;4976031;28;20018;-87
2022/06/18 05:45:42;;;;;;;6.00;2.50;;;20.30;99.90;;;;;;4976308;28;20041;-88
2022/06/18 05:48:09;;;;;;;7.18;2.55;;;20.50;99.90;;;;;;4975954;28;20034;-88
2022/06/18 05:50:34;;;;;;;2.35;2.15;;;20.60;99.90;;;;;;4975335;28;20022;-88
2022/06/18 05:53:00;;;;;;;3.63;2.42;;;20.80;99.90;;;;;;4975842;28;20101;-88
2022/06/18 05:55:55;;;;;;;2.75;2.33;;;20.90;99.90;;;;;;5003733;28;20027;-88
2022/06/18 05:58:38;;;;;;;5.53;2.35;;;21.00;99.90;;;;;;4978822;28;20097;-87
2022/06/18 06:01:10;;;;;;;2.80;2.47;;;21.10;99.90;;;;;;4978259;28;20034;-88
2022/06/18 06:03:36;;;;;;;3.20;2.40;;;21.30;99.90;;;;;;4977837;28;20034;-88
2022/06/18 06:06:03;;;;;;;4.15;2.33;;;21.40;99.90;;;;;;4977194;28;20117;-88
2022/06/18 06:08:31;;;;;;;3.85;2.35;;;21.60;99.90;;;;;;4972754;28;20445;-88
2022/06/18 06:13:41;;;;;;;4.60;2.20;;;21.90;99.90;;;;;;4975321;28;20073;-87
2022/06/18 06:16:07;;;;;;;3.35;2.40;;;22.00;99.90;;;;;;4975507;28;20039;-88
2022/06/18 06:18:33;;;;;;;5.15;2.13;;;22.20;99.90;;;;;;4975173;28;20035;-87
2022/06/18 06:21:00;;;;;;;2.70;1.92;;;22.40;99.90;;;;;;4974992;28;20041;-87
2022/06/18 06:23:26;;;;;;;3.95;2.50;;;22.60;99.90;;;;;;4975046;28;20043;-88
2022/06/18 06:25:52;;;;;;;3.05;2.33;;;22.70;99.90;;;;;;4975339;28;20174;-88
2022/06/18 06:28:23;;;;;;;5.30;2.45;;;22.90;99.90;;;;;;4974946;28;20206;-88
2022/06/18 06:30:51;;;;;;;;;;;23.10;99.90;;;;;;4975852;28;20035;-88
2022/06/18 06:33:18;;;;;;;5.20;2.40;;;23.30;99.90;;;;;;4990750;28;19906;-88
2022/06/18 06:35:45;;;;;;;2.88;2.30;;;23.50;99.90;;;;;;4990927;28;20030;-88
2022/06/18 06:38:11;;;;;;;5.35;2.35;;;23.60;99.90;;;;;;4991026;28;20039;-88
2022/06/18 06:40:37;;;;;;;4.03;2.53;;;23.80;99.90;;;;;;4974638;28;20371;-88
2022/06/18 06:43:04;;;;;;;9.55;2.58;;;23.90;99.90;;;;;;4974286;28;20039;-88
2022/06/18 06:45:32;;;;;;;4.30;2.42;;;24.00;99.90;;;;;;4974532;28;20742;-88
2022/06/18 06:47:58;;;;;;;2.63;1.95;;;24.20;99.90;;;;;;4974638;28;20043;-89
2022/06/18 06:50:26;;;;;;;7.22;2.25;;;24.30;99.90;;;;;;4974680;28;20034;-88
2022/06/18 06:52:52;;;;;;;9.65;2.75;;;24.40;99.90;;;;;;4989608;28;20391;-88
2022/06/18 06:58:08;;;;;;;9.40;5.43;;;24.50;98.90;;;;;;4972859;28;20125;-88
2022/06/18 07:00:41;;;;;;;82.10;43.38;;;24.60;98.00;;;;;;4972662;28;20030;-88
2022/06/18 07:03:09;;;;;;;11.73;6.78;;;24.60;95.40;;;;;;4974468;28;20134;-88
2022/06/18 07:05:34;;;;;;;6.30;3.28;;;24.60;94.60;;;;;;4989981;28;20109;-88
2022/06/18 07:08:00;;;;;;;3.30;2.42;;;24.90;95.60;;;;;;4973985;28;20054;-88
2022/06/18 07:10:26;;;;;;;4.53;2.30;;;25.50;94.90;;;;;;4974560;28;20086;-89
2022/06/18 07:12:51;;;;;;;3.25;1.90;;;26.20;92.80;;;;;;4971219;28;20085;-89
2022/06/18 07:15:17;;;;;;;3.40;1.90;;;27.50;92.30;;;;;;4990643;28;20122;-90
2022/06/18 07:17:43;;;;;;;2.65;2.08;;;28.60;90.10;;;;;;4974677;28;20941;-89
2022/06/18 07:20:16;;;;;;;4.57;2.13;;;29.70;85.20;;;;;;4974547;28;20035;-87
2022/06/18 07:22:42;;;;;;;3.35;2.10;;;30.80;79.20;;;;;;4991082;28;20023;-89
2022/06/18 07:25:08;;;;;;;12.00;2.97;;;31.50;71.90;;;;;;4974395;28;20026;-88
2022/06/18 07:27:35;;;;;;;4.20;2.00;;;32.00;71.70;;;;;;4975083;28;20035;-89
2022/06/18 07:30:02;;;;;;;2.83;2.10;;;32.50;69.20;;;;;;4974244;28;20050;-88
2022/06/18 07:32:28;;;;;;;3.78;1.90;;;33.00;66.10;;;;;;4990146;28;20128;-90
2022/06/18 07:34:54;;;;;;;2.08;1.60;;;32.80;64.90;;;;;;4974544;28;20026;-89
2022/06/18 07:37:21;;;;;;;14.15;2.30;;;33.10;63.40;;;;;;4974125;28;20134;-90
2022/06/18 07:39:47;;;;;;;8.77;1.60;;;33.30;59.90;;;;;;4990518;28;20031;-88
2022/06/18 07:42:21;;;;;;;1.75;1.40;;;33.40;58.20;;;;;;4973839;28;20948;-90
2022/06/18 07:44:46;;;;;;;3.33;1.60;;;32.60;57.10;;;;;;4973985;28;20085;-89
2022/06/18 07:47:14;;;;;;;3.63;1.70;;;31.10;58.70;;;;;;4975348;28;20022;-89
2022/06/18 07:49:41;;;;;;;1.85;1.40;;;30.00;61.70;;;;;;4973945;28;20505;-88
2022/06/18 07:52:06;;;;;;;1.75;1.35;;;29.10;63.80;;;;;;4990124;28;20131;-90
2022/06/18 07:54:32;;;;;;;5.75;1.70;;;28.90;65.00;;;;;;4974408;28;20126;-88
2022/06/18 07:56:58;;;;;;;4.13;1.60;;;28.80;64.50;;;;;;4974249;28;20059;-89
2022/06/18 07:59:38;;;;;;;2.70;1.73;;;28.60;62.90;;;;;;4974739;28;20031;-88
2022/06/18 08:02:06;;;;;;;3.20;1.50;;;29.90;62.00;;;;;;4974419;28;20041;-88
2022/06/18 08:04:31;;;;;;;3.15;2.20;;;31.40;58.80;;;;;;4975705;28;20110;-90
2022/06/18 08:06:57;;;;;;;3.53;1.25;;;32.50;61.80;;;;;;4978566;28;20038;-88
2022/06/18 08:09:23;;;;;;;4.50;1.50;;;33.70;55.90;;;;;;4976873;28;20042;-90
2022/06/18 08:11:50;;;;;;;4.90;1.13;;;34.60;56.30;;;;;;4977131;28;20493;-89
2022/06/18 08:14:16;;;;;;;1.83;1.20;;;35.20;53.80;;;;;;4976579;28;20084;-89
2022/06/18 08:16:44;;;;;;;2.78;1.50;;;35.30;50.70;;;;;;4976878;28;20046;-90
2022/06/18 08:19:10;;;;;;;1.25;1.02;;;35.10;49.40;;;;;;4977339;28;20038;-89
2022/06/18 08:21:40;;;;;;;2.65;1.20;;;35.40;50.70;;;;;;4977332;28;20035;-89
2022/06/18 08:24:10;;;;;;;2.70;1.55;;;35.50;49.00;;;;;;4976844;28;20034;-90
2022/06/18 08:26:38;;;;;;;3.00;1.30;;;35.80;47.50;;;;;;4993637;28;20041;-90
2022/06/18 08:29:06;;;;;;;2.72;1.60;;;36.20;49.00;;;;;;4977098;28;20035;-89
2022/06/18 08:31:32;;;;;;;2.30;1.20;;;36.00;47.10;;;;;;4977124;28;20041;-90
2022/06/18 08:33:58;;;;;;;4.07;1.45;;;35.30;46.20;;;;;;4993662;28;20399;-88
2022/06/18 08:36:25;;;;;;;1.48;1.38;;;34.40;46.00;;;;;;4976720;28;20736;-89
2022/06/18 08:38:52;;;;;;;4.55;1.48;;;34.10;49.40;;;;;;4993339;28;20031;-89
2022/06/18 08:41:52;;;;;;;4.55;1.60;;;34.50;48.90;;;;;;4976319;28;20380;-90
2022/06/18 08:44:42;;;;;;;4.28;1.30;;;34.30;47.70;;;;;;4976603;28;20439;-90
2022/06/18 08:47:41;;;;;;;2.60;1.40;;;34.20;48.60;;;;;;4976751;28;20042;-89
2022/06/18 08:50:13;;;;;;;2.67;1.50;;;34.30;49.40;;;;;;4976642;28;20080;-89
2022/06/18 08:53:01;;;;;;;4.75;1.40;;;34.10;49.70;;;;;;4976484;28;20133;-89
2022/06/18 08:55:56;;;;;;;3.88;1.20;;;33.50;50.50;;;;;;4976683;28;20510;-89
2022/06/18 08:58:43;;;;;;;3.10;1.38;;;33.20;48.70;;;;;;4976453;28;20031;-89
2022/06/18 09:01:13;;;;;;;3.15;1.65;;;33.40;50.00;;;;;;4976139;28;20580;-89
2022/06/18 09:03:45;;;;;;;4.20;1.40;;;33.70;48.60;;;;;;4976014;28;20031;-89
2022/06/18 09:06:30;;;;;;;3.60;1.40;;;34.10;50.80;;;;;;4977192;28;20282;-90
2022/06/18 09:09:31;;;;;;;3.58;1.48;;;34.40;49.50;;;;;;4976406;28;20563;-89
2022/06/18 09:12:12;;;;;;;4.32;1.83;;;34.40;49.10;;;;;;4992337;28;20034;-88
2022/06/18 09:15:07;;;;;;;3.38;1.60;;;34.40;48.80;;;;;;4976823;28;20026;-89
2022/06/18 09:17:44;;;;;;;2.70;1.48;;;34.30;51.00;;;;;;4975572;28;20042;-89
2022/06/18 09:20:27;;;;;;;8.18;1.50;;;34.80;48.70;;;;;;4975812;28;20475;-90
2022/06/18 09:22:56;;;;;;;2.42;1.48;;;35.10;45.70;;;;;;4977539;28;20031;-90
2022/06/18 09:25:38;;;;;;;2.45;1.60;;;35.10;48.00;;;;;;4976771;28;20042;-89
2022/06/18 09:28:07;;;;;;;5.40;1.42;;;35.10;45.90;;;;;;4976030;28;20034;-90
2022/06/18 09:31:05;;;;;;;5.45;1.58;;;35.10;45.80;;;;;;4975761;28;20049;-89
2022/06/18 09:33:35;;;;;;;2.35;1.50;;;35.00;44.10;;;;;;4973034;28;20395;-88
2022/06/18 09:36:23;;;;;;;3.65;1.88;;;35.00;47.40;;;;;;4971437;28;20038;-89
2022/06/18 09:39:11;;;;;;;2.22;1.85;;;35.20;48.70;;;;;;4976015;28;20685;-89
2022/06/18 09:41:55;;;;;;;6.85;2.10;;;35.00;48.90;;;;;;4975055;28;20061;-90
2022/06/18 09:44:26;;;;;;;10.85;1.88;;;35.30;49.10;;;;;;4991910;28;20035;-89
2022/06/18 09:47:05;;;;;;;2.13;1.30;;;35.90;48.10;;;;;;4974511;28;20030;-90
2022/06/18 09:49:32;;;;;;;4.22;1.52;;;36.50;48.40;;;;;;4973767;28;20044;-90
2022/06/18 09:52:27;;;;;;;2.92;1.80;;;37.00;46.00;;;;;;4992032;28;20031;-90
2022/06/18 09:55:01;;;;;;;7.60;1.45;;;37.30;45.20;;;;;;4969961;28;20034;-90
2022/06/18 09:57:31;;;;;;;4.38;1.40;;;37.20;46.00;;;;;;4975391;28;20038;-89
2022/06/18 10:00:11;;;;;;;2.83;1.73;;;37.10;47.10;;;;;;4975517;28;20035;-91
2022/06/18 10:02:57;;;;;;;4.20;1.73;;;37.50;45.70;;;;;;4975630;28;20031;-90
2022/06/18 10:08:34;;;;;;;6.85;1.85;;;37.10;46.30;;;;;;4975209;28;20038;-89
2022/06/18 10:11:07;;;;;;;1.77;1.48;;;36.10;46.20;;;;;;4975227;28;20031;-89
2022/06/18 10:13:41;;;;;;;9.23;1.73;;;35.70;47.00;;;;;;4974815;28;20038;-89
2022/06/18 10:16:25;;;;;;;2.58;1.60;;;35.10;46.80;;;;;;4975032;28;20034;-89
2022/06/18 10:19:03;;;;;;;6.80;1.50;;;34.90;49.00;;;;;;4975176;28;20042;-89
2022/06/18 10:21:46;;;;;;;9.52;2.00;;;35.10;48.80;;;;;;4974794;28;20039;-90
2022/06/18 10:24:32;;;;;;;5.65;2.00;;;34.80;46.60;;;;;;4991013;28;20038;-91
2022/06/18 10:27:31;;;;;;;5.05;1.65;;;34.70;47.40;;;;;;4974980;28;20038;-90
2022/06/18 10:30:06;;;;;;;4.28;1.63;;;34.70;50.10;;;;;;4975025;28;20093;-90
2022/06/18 10:32:38;;;;;;;5.13;1.40;;;34.70;47.80;;;;;;4974897;28;20054;-89
2022/06/18 10:35:41;;;;;;;3.55;1.80;;;34.30;48.00;;;;;;4974373;28;20027;-90
2022/06/18 10:38:28;;;;;;;3.05;1.60;;;34.10;48.30;;;;;;4974859;28;20031;-89
2022/06/18 10:41:13;;;;;;;2.17;1.40;;;34.00;48.20;;;;;;4975107;28;20030;-89
2022/06/18 10:43:50;;;;;;;3.08;1.27;;;34.00;49.10;;;;;;4971780;28;20041;-89
2022/06/18 10:46:21;;;;;;;2.90;1.60;;;34.40;47.20;;;;;;4971183;28;20031;-90
2022/06/18 10:48:52;;;;;;;3.95;1.58;;;34.30;48.00;;;;;;4974648;28;20031;-89
2022/06/18 10:51:24;;;;;;;3.72;1.70;;;34.10;48.60;;;;;;4974717;28;20627;-90
2022/06/18 10:53:56;;;;;;;4.63;1.92;;;33.80;47.80;;;;;;4990523;28;20081;-90
2022/06/18 10:56:25;;;;;;;4.10;1.85;;;33.70;47.70;;;;;;4975379;28;20030;-90
2022/06/18 10:58:56;;;;;;;9.20;1.92;;;34.10;47.90;;;;;;4990541;28;20530;-90
2022/06/18 11:01:35;;;;;;;3.60;1.60;;;34.60;46.30;;;;;;4990643;28;20035;-91
2022/06/18 11:04:19;;;;;;;4.05;1.80;;;35.00;46.90;;;;;;4973309;28;20030;-90
2022/06/18 11:06:47;;;;;;;5.10;1.77;;;35.00;46.30;;;;;;4973954;28;20054;-90
2022/06/18 11:09:33;;;;;;;9.90;1.83;;;35.40;46.50;;;;;;4990090;28;20027;-90
2022/06/18 11:12:02;;;;;;;9.52;2.05;;;35.80;47.60;;;;;;4974245;28;20043;-90
2022/06/18 11:14:38;;;;;;;8.82;1.60;;;35.80;46.10;;;;;;4973900;28;20030;-90
2022/06/18 11:17:43;;;;;;;6.95;2.05;;;35.90;45.80;;;;;;4990121;28;20061;-91
2022/06/18 11:20:15;;;;;;;10.10;2.25;;;35.20;47.00;;;;;;4974277;28;20080;-90
2022/06/18 11:22:41;;;;;;;11.05;2.55;;;35.50;45.00;;;;;;4989827;28;20394;-90
2022/06/18 11:25:40;;;;;;;7.63;3.22;;;35.20;44.60;;;;;;4973707;28;20035;-89
2022/06/18 11:28:41;;;;;;;15.60;3.03;;;35.50;45.30;;;;;;4973686;28;20061;-90
2022/06/18 11:31:13;;;;;;;10.85;2.50;;;35.50;44.80;;;;;;4989757;28;20039;-89
2022/06/18 11:34:05;;;;;;;8.35;2.53;;;35.20;43.80;;;;;;4989872;28;20080;-91
2022/06/18 11:36:35;;;;;;;57.65;32.83;;;35.40;44.80;;;;;;4973719;28;20081;-90
2022/06/18 11:39:02;;;;;;;7.13;2.42;;;34.80;46.70;;;;;;4973557;28;20038;-89
2022/06/18 11:41:34;;;;;;;11.40;2.30;;;34.90;47.90;;;;;;4990104;28;20504;-89
2022/06/18 11:44:13;;;;;;;12.07;2.38;;;34.70;47.50;;;;;;4989980;28;20038;-90
2022/06/18 11:46:45;;;;;;;12.35;2.92;;;34.90;48.00;;;;;;4973806;28;20482;-89
2022/06/18 11:49:30;;;;;;;10.30;2.50;;;34.70;47.70;;;;;;4973979;28;20035;-89
2022/06/18 11:52:10;;;;;;;8.68;2.80;;;34.50;49.40;;;;;;4975019;28;20041;-91
2022/06/18 11:54:48;;;;;;;8.00;1.90;;;34.90;49.60;;;;;;4973796;28;20031;-91
2022/06/18 11:57:25;;;;;;;11.40;2.97;;;35.00;50.30;;;;;;4973683;28;20035;-90
2022/06/18 12:00:03;;;;;;;15.18;2.88;;;34.70;49.40;;;;;;4973682;28;20070;-90
2022/06/18 12:02:50;;;;;;;;;;;34.70;48.80;;;;;;4974350;28;20498;-90
2022/06/18 12:05:55;;;;;;;12.45;2.97;;;34.70;49.10;;;;;;4973397;28;19910;-90
2022/06/18 12:08:22;;;;;;;12.35;2.88;;;34.70;48.80;;;;;;4956772;28;20035;-90
2022/06/18 12:11:29;;;;;;;11.48;2.80;;;34.90;49.80;;;;;;4969998;28;20042;-91
2022/06/18 12:14:06;;;;;;;17.15;3.70;;;35.10;49.90;;;;;;4967633;28;20038;-89
2022/06/18 12:16:52;;;;;;;13.35;2.95;;;35.00;48.60;;;;;;4973731;28;20062;-91
2022/06/18 12:19:41;;;;;;;16.30;2.80;;;35.20;48.10;;;;;;4973631;28;20541;-90
2022/06/18 12:22:29;;;;;;;10.40;2.90;;;35.30;48.50;;;;;;4973959;28;20039;-91
2022/06/18 12:25:15;;;;;;;15.60;2.58;;;35.50;47.40;;;;;;4973579;28;20121;-89
2022/06/18 12:27:55;;;;;;;8.20;2.47;;;36.00;46.80;;;;;;4974394;28;20422;-90
2022/06/18 12:30:34;;;;;;;10.77;2.33;;;35.80;45.90;;;;;;4973550;28;20094;-90
2022/06/18 12:33:15;;;;;;;7.17;2.80;;;35.90;46.90;;;;;;4973211;28;20046;-90
2022/06/18 12:35:41;;;;;;;;;;;36.10;45.50;;;;;;4975133;28;20086;-93
2022/06/18 12:38:10;;;;;;;8.82;3.38;;;36.40;46.00;;;;;;4974531;28;19910;-91
2022/06/18 12:41:10;;;;;;;17.48;3.20;;;36.80;47.20;;;;;;4973329;28;20121;-90
2022/06/18 12:43:44;;;;;;;8.55;2.90;;;37.20;45.70;;;;;;4972887;28;20035;-91
2022/06/18 12:46:39;;;;;;;16.30;3.63;;;37.50;44.80;;;;;;4973786;28;20038;-90
2022/06/18 12:49:12;;;;;;;11.63;3.03;;;36.50;45.00;;;;;;4976015;28;20501;-90
2022/06/18 12:51:52;;;;;;;14.48;2.78;;;36.40;45.50;;;;;;4994064;28;20031;-89
2022/06/18 12:54:35;;;;;;;12.20;2.97;;;36.90;46.30;;;;;;4980149;28;20434;-91
2022/06/18 12:57:32;;;;;;;16.73;2.65;;;37.50;45.60;;;;;;4976926;28;20039;-90
2022/06/18 13:00:45;;;;;;;14.20;2.42;;;37.70;42.90;;;;;;4977421;28;20486;-90
2022/06/18 13:03:39;;;;;;;9.88;2.40;;;38.00;43.70;;;;;;4976394;28;20043;-90
2022/06/18 13:06:20;;;;;;;14.40;3.08;;;37.70;43.70;;;;;;4977583;28;20512;-91
2022/06/18 13:09:17;;;;;;;14.25;2.45;;;38.10;45.10;;;;;;4993289;28;20034;-90
2022/06/18 13:11:55;;;;;;;14.05;2.90;;;37.60;42.60;;;;;;4967036;28;20086;-91
2022/06/18 13:14:31;;;;;;;8.15;2.58;;;37.50;45.20;;;;;;4976286;28;20383;-91
2022/06/18 13:17:07;;;;;;;11.25;2.65;;;37.50;43.90;;;;;;4977365;28;20442;-91
2022/06/18 13:19:39;;;;;;;17.00;2.83;;;38.00;43.40;;;;;;4976288;28;20497;-91
2022/06/18 13:22:05;;;;;;;15.65;2.42;;;38.10;41.80;;;;;;4976435;28;20502;-91
2022/06/18 13:30:36;;;;;;;15.48;3.85;;;38.50;41.80;;;;;;4984988;28;20053;-91
2022/06/18 13:33:10;;;;;;;11.23;3.80;;;38.20;41.40;;;;;;4975886;28;20045;-91
2022/06/18 13:36:05;;;;;;;16.38;6.97;;;38.30;41.30;;;;;;4975839;28;20078;-91
2022/06/18 13:39:11;;;;;;;13.38;3.15;;;38.30;41.20;;;;;;4989106;28;20049;-90
2022/06/18 13:42:06;;;;;;;20.55;3.38;;;37.80;41.50;;;;;;4975963;28;20501;-90
2022/06/18 13:45:16;;;;;;;24.63;3.95;;;37.80;40.60;;;;;;4991960;28;20041;-90
2022/06/18 13:47:49;;;;;;;18.95;3.55;;;38.00;41.70;;;;;;4980757;28;20438;-89